sensor_id;sensor_type;location;lat;lon;timestamp;pressure;altitude;pressure_sealevel;temperature;humidity
82293;BME280;71892;14.836;105.234;2023-09-18T00:01:00;99409.25;;;26.22;nan
82293;BME280;71892;14.836;105.234;2023-09-18T00:03:26;99422.44;;;26.30;nan
82293;BME280;71892;14.836;105.234;2023-09-18T00:05:53;99424.78;;;26.37;nan
82293;BME280;71892;14.836;105.234;2023-09-18T00:08:20;99348.94;;;26.44;nan
82293;BME280;71892;14.836;105.234;2023-09-18T00:10:51;99432.94;;;26.53;nan
82293;BME280;71892;14.836;105.234;2023-09-18T00:15:44;99440.19;;;26.70;nan
82293;BME280;71892;14.836;105.234;2023-09-18T00:18:16;99449.31;;;26.86;nan
82293;BME280;71892;14.836;105.234;2023-09-18T00:20:42;99442.94;;;26.86;nan
82293;BME280;71892;14.836;105.234;2023-09-18T00:23:09;99455.50;;;27.05;nan
82293;BME280;71892;14.836;105.234;2023-09-18T00:25:36;99447.59;;;27.31;nan
82293;BME280;71892;14.836;105.234;2023-09-18T00:28:08;99456.34;;;27.53;nan
82293;BME280;71892;14.836;105.234;2023-09-18T00:30:34;99454.03;;;27.61;nan
82293;BME280;71892;14.836;105.234;2023-09-18T00:33:02;99462.25;;;27.75;nan
82293;BME280;71892;14.836;105.234;2023-09-18T00:35:28;99465.66;;;28.08;nan
82293;BME280;71892;14.836;105.234;2023-09-18T00:37:54;99473.97;;;28.37;nan
82293;BME280;71892;14.836;105.234;2023-09-18T00:40:21;99472.63;;;28.72;nan
82293;BME280;71892;14.836;105.234;2023-09-18T00:42:48;99474.00;;;29.20;nan
82293;BME280;71892;14.836;105.234;2023-09-18T00:45:14;99484.28;;;29.31;nan
82293;BME280;71892;14.836;105.234;2023-09-18T00:47:41;99477.44;;;29.38;nan
82293;BME280;71892;14.836;105.234;2023-09-18T00:50:08;99485.97;;;29.33;nan
82293;BME280;71892;14.836;105.234;2023-09-18T00:52:38;99493.34;;;29.72;nan
82293;BME280;71892;14.836;105.234;2023-09-18T00:55:06;99412.78;;;29.75;nan
82293;BME280;71892;14.836;105.234;2023-09-18T00:57:33;99498.94;;;29.71;nan
82293;BME280;71892;14.836;105.234;2023-09-18T01:00:01;99496.31;;;29.43;nan
82293;BME280;71892;14.836;105.234;2023-09-18T01:02:27;99500.34;;;29.91;nan
82293;BME280;71892;14.836;105.234;2023-09-18T01:04:54;99495.28;;;31.13;nan
82293;BME280;71892;14.836;105.234;2023-09-18T01:07:21;99503.13;;;32.25;nan
82293;BME280;71892;14.836;105.234;2023-09-18T01:09:48;99501.66;;;33.45;nan
82293;BME280;71892;14.836;105.234;2023-09-18T01:12:47;99515.00;;;34.03;nan
82293;BME280;71892;14.836;105.234;2023-09-18T01:15:31;99515.97;;;34.45;nan
82293;BME280;71892;14.836;105.234;2023-09-18T01:17:59;99509.66;;;35.15;nan
82293;BME280;71892;14.836;105.234;2023-09-18T01:20:25;99519.69;;;35.37;nan
82293;BME280;71892;14.836;105.234;2023-09-18T01:22:53;99512.84;;;35.81;nan
82293;BME280;71892;14.836;105.234;2023-09-18T01:25:19;99509.50;;;35.78;nan
82293;BME280;71892;14.836;105.234;2023-09-18T01:27:46;99519.88;;;36.14;nan
82293;BME280;71892;14.836;105.234;2023-09-18T01:30:12;99521.59;;;36.53;nan
82293;BME280;71892;14.836;105.234;2023-09-18T01:32:39;99512.72;;;36.02;nan
82293;BME280;71892;14.836;105.234;2023-09-18T01:35:07;99529.16;;;34.83;nan
82293;BME280;71892;14.836;105.234;2023-09-18T01:37:36;99518.41;;;35.41;nan
82293;BME280;71892;14.836;105.234;2023-09-18T01:40:06;99502.63;;;35.72;nan
82293;BME280;71892;14.836;105.234;2023-09-18T01:42:34;99497.16;;;35.51;nan
82293;BME280;71892;14.836;105.234;2023-09-18T01:45:01;99513.31;;;36.25;nan
82293;BME280;71892;14.836;105.234;2023-09-18T01:47:28;99518.38;;;36.58;nan
82293;BME280;71892;14.836;105.234;2023-09-18T01:49:54;99501.22;;;36.26;nan
82293;BME280;71892;14.836;105.234;2023-09-18T01:52:21;99533.38;;;36.07;nan
82293;BME280;71892;14.836;105.234;2023-09-18T01:54:48;99518.22;;;35.83;nan
82293;BME280;71892;14.836;105.234;2023-09-18T01:57:14;99520.69;;;35.36;nan
82293;BME280;71892;14.836;105.234;2023-09-18T01:59:41;99527.03;;;35.17;nan
82293;BME280;71892;14.836;105.234;2023-09-18T02:02:07;99532.03;;;35.03;nan
82293;BME280;71892;14.836;105.234;2023-09-18T02:04:35;99532.13;;;34.92;nan
82293;BME280;71892;14.836;105.234;2023-09-18T02:07:02;99529.25;;;34.52;nan
82293;BME280;71892;14.836;105.234;2023-09-18T02:09:29;99529.41;;;34.18;nan
82293;BME280;71892;14.836;105.234;2023-09-18T02:11:55;99534.44;;;33.59;nan
82293;BME280;71892;14.836;105.234;2023-09-18T02:14:22;99531.09;;;33.11;nan
82293;BME280;71892;14.836;105.234;2023-09-18T02:16:48;99538.47;;;32.77;nan
82293;BME280;71892;14.836;105.234;2023-09-18T02:19:15;99529.38;;;32.53;nan
82293;BME280;71892;14.836;105.234;2023-09-18T02:21:43;99532.19;;;32.29;nan
82293;BME280;71892;14.836;105.234;2023-09-18T02:24:09;99527.81;;;32.03;nan
82293;BME280;71892;14.836;105.234;2023-09-18T02:26:36;99453.84;;;31.87;nan
82293;BME280;71892;14.836;105.234;2023-09-18T02:29:07;99520.38;;;31.68;nan
82293;BME280;71892;14.836;105.234;2023-09-18T02:31:37;99528.22;;;31.49;nan
82293;BME280;71892;14.836;105.234;2023-09-18T02:34:03;99533.94;;;31.59;nan
82293;BME280;71892;14.836;105.234;2023-09-18T02:36:30;99539.28;;;31.73;nan
82293;BME280;71892;14.836;105.234;2023-09-18T02:38:57;99531.91;;;31.73;nan
82293;BME280;71892;14.836;105.234;2023-09-18T02:41:23;99530.63;;;31.90;nan
82293;BME280;71892;14.836;105.234;2023-09-18T02:43:49;99536.81;;;32.05;nan
82293;BME280;71892;14.836;105.234;2023-09-18T02:46:16;99476.53;;;32.02;nan
82293;BME280;71892;14.836;105.234;2023-09-18T02:48:42;99529.41;;;32.05;nan
82293;BME280;71892;14.836;105.234;2023-09-18T02:51:09;99537.13;;;32.13;nan
82293;BME280;71892;14.836;105.234;2023-09-18T02:53:36;99522.66;;;32.22;nan
82293;BME280;71892;14.836;105.234;2023-09-18T02:56:02;99527.53;;;32.29;nan
82293;BME280;71892;14.836;105.234;2023-09-18T02:58:28;99527.84;;;32.38;nan
82293;BME280;71892;14.836;105.234;2023-09-18T03:00:57;99445.25;;;32.49;nan
82293;BME280;71892;14.836;105.234;2023-09-18T03:03:28;99515.81;;;32.27;nan
82293;BME280;71892;14.836;105.234;2023-09-18T03:06:00;99512.25;;;32.14;nan
82293;BME280;71892;14.836;105.234;2023-09-18T03:08:28;99520.91;;;32.21;nan
82293;BME280;71892;14.836;105.234;2023-09-18T03:10:54;99511.53;;;32.23;nan
82293;BME280;71892;14.836;105.234;2023-09-18T03:13:21;99511.13;;;32.17;nan
82293;BME280;71892;14.836;105.234;2023-09-18T03:15:48;99515.03;;;32.02;nan
82293;BME280;71892;14.836;105.234;2023-09-18T03:18:14;99512.38;;;31.89;nan
82293;BME280;71892;14.836;105.234;2023-09-18T03:20:40;99524.88;;;31.93;nan
82293;BME280;71892;14.836;105.234;2023-09-18T03:23:07;99517.56;;;32.05;nan
82293;BME280;71892;14.836;105.234;2023-09-18T03:25:34;99515.22;;;32.11;nan
82293;BME280;71892;14.836;105.234;2023-09-18T03:28:01;99520.41;;;32.27;nan
82293;BME280;71892;14.836;105.234;2023-09-18T03:30:27;99516.53;;;32.29;nan
82293;BME280;71892;14.836;105.234;2023-09-18T03:32:54;99511.19;;;32.28;nan
82293;BME280;71892;14.836;105.234;2023-09-18T03:35:21;99516.06;;;32.35;nan
82293;BME280;71892;14.836;105.234;2023-09-18T03:37:51;99522.97;;;32.41;nan
82293;BME280;71892;14.836;105.234;2023-09-18T03:40:20;99514.38;;;32.57;nan
82293;BME280;71892;14.836;105.234;2023-09-18T03:42:47;99463.72;;;32.82;nan
82293;BME280;71892;14.836;105.234;2023-09-18T03:45:15;99518.69;;;32.94;nan
82293;BME280;71892;14.836;105.234;2023-09-18T03:47:44;99529.19;;;32.78;nan
82293;BME280;71892;14.836;105.234;2023-09-18T03:50:12;99519.00;;;32.56;nan
82293;BME280;71892;14.836;105.234;2023-09-18T03:52:39;99519.81;;;32.34;nan
82293;BME280;71892;14.836;105.234;2023-09-18T03:55:06;99522.03;;;32.29;nan
82293;BME280;71892;14.836;105.234;2023-09-18T03:57:34;99516.88;;;32.14;nan
82293;BME280;71892;14.836;105.234;2023-09-18T04:00:04;99518.28;;;32.19;nan
82293;BME280;71892;14.836;105.234;2023-09-18T04:02:31;99516.31;;;32.32;nan
82293;BME280;71892;14.836;105.234;2023-09-18T04:04:57;99519.03;;;32.21;nan
82293;BME280;71892;14.836;105.234;2023-09-18T04:07:23;99514.88;;;32.16;nan
82293;BME280;71892;14.836;105.234;2023-09-18T04:09:50;99500.78;;;32.31;nan
82293;BME280;71892;14.836;105.234;2023-09-18T04:12:16;99500.16;;;32.39;nan
82293;BME280;71892;14.836;105.234;2023-09-18T04:14:43;99491.22;;;32.48;nan
82293;BME280;71892;14.836;105.234;2023-09-18T04:17:09;99490.97;;;32.62;nan
82293;BME280;71892;14.836;105.234;2023-09-18T04:19:36;99490.50;;;32.68;nan
82293;BME280;71892;14.836;105.234;2023-09-18T04:22:02;99480.34;;;32.69;nan
82293;BME280;71892;14.836;105.234;2023-09-18T04:24:29;99474.13;;;33.00;nan
82293;BME280;71892;14.836;105.234;2023-09-18T04:26:55;99469.09;;;33.16;nan
82293;BME280;71892;14.836;105.234;2023-09-18T04:29:21;99460.34;;;33.00;nan
82293;BME280;71892;14.836;105.234;2023-09-18T04:31:48;99468.22;;;33.05;nan
82293;BME280;71892;14.836;105.234;2023-09-18T04:34:14;99468.84;;;33.08;nan
82293;BME280;71892;14.836;105.234;2023-09-18T04:36:41;99460.56;;;32.97;nan
82293;BME280;71892;14.836;105.234;2023-09-18T04:39:09;99458.47;;;33.01;nan
82293;BME280;71892;14.836;105.234;2023-09-18T04:41:36;99457.44;;;33.02;nan
82293;BME280;71892;14.836;105.234;2023-09-18T04:44:03;99459.22;;;32.92;nan
82293;BME280;71892;14.836;105.234;2023-09-18T04:46:31;99424.66;;;32.99;nan
82293;BME280;71892;14.836;105.234;2023-09-18T04:48:57;99451.03;;;33.12;nan
82293;BME280;71892;14.836;105.234;2023-09-18T04:51:23;99440.44;;;33.19;nan
82293;BME280;71892;14.836;105.234;2023-09-18T04:53:50;99442.03;;;33.10;nan
82293;BME280;71892;14.836;105.234;2023-09-18T04:56:17;99426.53;;;33.21;nan
82293;BME280;71892;14.836;105.234;2023-09-18T04:58:45;99431.16;;;33.20;nan
82293;BME280;71892;14.836;105.234;2023-09-18T05:01:11;99426.41;;;33.11;nan
82293;BME280;71892;14.836;105.234;2023-09-18T05:03:37;99421.75;;;33.23;nan
82293;BME280;71892;14.836;105.234;2023-09-18T05:06:04;99418.84;;;33.35;nan
82293;BME280;71892;14.836;105.234;2023-09-18T05:08:31;99413.00;;;33.06;nan
82293;BME280;71892;14.836;105.234;2023-09-18T05:10:57;99399.94;;;33.08;nan
82293;BME280;71892;14.836;105.234;2023-09-18T05:13:24;99394.84;;;33.47;nan
82293;BME280;71892;14.836;105.234;2023-09-18T05:15:50;99404.13;;;33.89;nan
82293;BME280;71892;14.836;105.234;2023-09-18T05:18:17;99389.31;;;34.31;nan
82293;BME280;71892;14.836;105.234;2023-09-18T05:20:43;99382.84;;;34.21;nan
82293;BME280;71892;14.836;105.234;2023-09-18T05:23:09;99375.75;;;34.28;nan
82293;BME280;71892;14.836;105.234;2023-09-18T05:25:36;99386.72;;;34.39;nan
82293;BME280;71892;14.836;105.234;2023-09-18T05:28:04;99387.53;;;34.10;nan
82293;BME280;71892;14.836;105.234;2023-09-18T05:30:33;99368.78;;;34.55;nan
82293;BME280;71892;14.836;105.234;2023-09-18T05:33:02;99367.03;;;35.43;nan
82293;BME280;71892;14.836;105.234;2023-09-18T05:35:33;99357.59;;;35.74;nan
82293;BME280;71892;14.836;105.234;2023-09-18T05:37:59;99360.91;;;35.59;nan
82293;BME280;71892;14.836;105.234;2023-09-18T05:40:26;99348.44;;;34.96;nan
82293;BME280;71892;14.836;105.234;2023-09-18T05:42:53;99350.84;;;34.39;nan
82293;BME280;71892;14.836;105.234;2023-09-18T05:45:20;99345.66;;;34.04;nan
82293;BME280;71892;14.836;105.234;2023-09-18T05:47:47;99336.09;;;34.09;nan
82293;BME280;71892;14.836;105.234;2023-09-18T05:50:14;99333.09;;;34.72;nan
82293;BME280;71892;14.836;105.234;2023-09-18T05:52:43;99323.22;;;35.29;nan
82293;BME280;71892;14.836;105.234;2023-09-18T05:55:10;99322.75;;;35.14;nan
82293;BME280;71892;14.836;105.234;2023-09-18T05:57:36;99323.44;;;34.97;nan
82293;BME280;71892;14.836;105.234;2023-09-18T06:00:04;99309.16;;;34.92;nan
82293;BME280;71892;14.836;105.234;2023-09-18T06:02:31;99314.00;;;35.00;nan
82293;BME280;71892;14.836;105.234;2023-09-18T06:05:00;99316.28;;;34.85;nan
82293;BME280;71892;14.836;105.234;2023-09-18T06:07:29;99312.16;;;34.30;nan
82293;BME280;71892;14.836;105.234;2023-09-18T06:09:57;99247.03;;;33.97;nan
82293;BME280;71892;14.836;105.234;2023-09-18T06:12:24;99294.25;;;33.73;nan
82293;BME280;71892;14.836;105.234;2023-09-18T06:14:53;99320.34;;;33.69;nan
82293;BME280;71892;14.836;105.234;2023-09-18T06:17:19;99313.38;;;33.75;nan
82293;BME280;71892;14.836;105.234;2023-09-18T06:19:46;99308.94;;;33.62;nan
82293;BME280;71892;14.836;105.234;2023-09-18T06:22:13;99273.28;;;33.91;nan
82293;BME280;71892;14.836;105.234;2023-09-18T06:24:39;99286.00;;;34.34;nan
82293;BME280;71892;14.836;105.234;2023-09-18T06:27:06;99287.50;;;34.47;nan
82293;BME280;71892;14.836;105.234;2023-09-18T06:29:33;99285.81;;;34.56;nan
82293;BME280;71892;14.836;105.234;2023-09-18T06:32:00;99277.53;;;34.56;nan
82293;BME280;71892;14.836;105.234;2023-09-18T06:34:27;99276.66;;;34.56;nan
82293;BME280;71892;14.836;105.234;2023-09-18T06:36:56;99267.06;;;34.20;nan
82293;BME280;71892;14.836;105.234;2023-09-18T06:39:22;99260.72;;;34.38;nan
82293;BME280;71892;14.836;105.234;2023-09-18T06:41:49;99250.88;;;34.45;nan
82293;BME280;71892;14.836;105.234;2023-09-18T06:44:16;99251.41;;;34.70;nan
82293;BME280;71892;14.836;105.234;2023-09-18T06:46:42;99237.38;;;34.62;nan
82293;BME280;71892;14.836;105.234;2023-09-18T06:49:08;99240.56;;;34.08;nan
82293;BME280;71892;14.836;105.234;2023-09-18T06:51:35;99240.88;;;33.63;nan
82293;BME280;71892;14.836;105.234;2023-09-18T06:54:01;99236.09;;;33.24;nan
82293;BME280;71892;14.836;105.234;2023-09-18T06:56:28;99233.28;;;32.82;nan
82293;BME280;71892;14.836;105.234;2023-09-18T06:58:55;99235.56;;;32.44;nan
82293;BME280;71892;14.836;105.234;2023-09-18T07:01:22;99223.13;;;32.28;nan
82293;BME280;71892;14.836;105.234;2023-09-18T07:03:50;99202.22;;;32.26;nan
82293;BME280;71892;14.836;105.234;2023-09-18T07:06:16;99217.13;;;31.90;nan
82293;BME280;71892;14.836;105.234;2023-09-18T07:08:46;99209.25;;;31.85;nan
82293;BME280;71892;14.836;105.234;2023-09-18T07:11:13;99216.97;;;32.03;nan
82293;BME280;71892;14.836;105.234;2023-09-18T07:13:39;99209.88;;;32.11;nan
82293;BME280;71892;14.836;105.234;2023-09-18T07:16:06;99210.84;;;32.21;nan
82293;BME280;71892;14.836;105.234;2023-09-18T07:18:32;99201.31;;;32.48;nan
82293;BME280;71892;14.836;105.234;2023-09-18T07:20:59;99199.66;;;32.56;nan
82293;BME280;71892;14.836;105.234;2023-09-18T07:23:25;99194.16;;;32.45;nan
82293;BME280;71892;14.836;105.234;2023-09-18T07:25:51;99186.59;;;32.26;nan
82293;BME280;71892;14.836;105.234;2023-09-18T07:28:17;99188.56;;;32.24;nan
82293;BME280;71892;14.836;105.234;2023-09-18T07:30:46;99187.75;;;32.56;nan
82293;BME280;71892;14.836;105.234;2023-09-18T07:33:13;99164.47;;;32.71;nan
82293;BME280;71892;14.836;105.234;2023-09-18T07:35:50;99174.97;;;32.77;nan
82293;BME280;71892;14.836;105.234;2023-09-18T07:38:19;99174.75;;;32.90;nan
82293;BME280;71892;14.836;105.234;2023-09-18T07:40:46;99180.53;;;32.87;nan
82293;BME280;71892;14.836;105.234;2023-09-18T07:43:13;99177.84;;;32.75;nan
82293;BME280;71892;14.836;105.234;2023-09-18T07:45:39;99167.41;;;32.79;nan
82293;BME280;71892;14.836;105.234;2023-09-18T07:48:07;99168.16;;;32.81;nan
82293;BME280;71892;14.836;105.234;2023-09-18T07:50:34;99163.94;;;32.77;nan
82293;BME280;71892;14.836;105.234;2023-09-18T07:53:02;99159.56;;;32.74;nan
82293;BME280;71892;14.836;105.234;2023-09-18T07:55:28;99158.94;;;32.71;nan
82293;BME280;71892;14.836;105.234;2023-09-18T07:57:56;99155.00;;;32.53;nan
82293;BME280;71892;14.836;105.234;2023-09-18T08:00:22;99151.84;;;32.57;nan
82293;BME280;71892;14.836;105.234;2023-09-18T08:02:49;99146.47;;;32.56;nan
82293;BME280;71892;14.836;105.234;2023-09-18T08:05:17;99141.00;;;32.45;nan
82293;BME280;71892;14.836;105.234;2023-09-18T08:07:43;99142.72;;;32.57;nan
82293;BME280;71892;14.836;105.234;2023-09-18T08:10:10;99130.44;;;32.61;nan
82293;BME280;71892;14.836;105.234;2023-09-18T08:12:37;99089.81;;;32.53;nan
82293;BME280;71892;14.836;105.234;2023-09-18T08:15:03;99130.88;;;32.34;nan
82293;BME280;71892;14.836;105.234;2023-09-18T08:17:31;99133.53;;;32.35;nan
82293;BME280;71892;14.836;105.234;2023-09-18T08:19:57;99145.44;;;32.25;nan
82293;BME280;71892;14.836;105.234;2023-09-18T08:22:24;99155.94;;;32.20;nan
82293;BME280;71892;14.836;105.234;2023-09-18T08:24:50;99160.97;;;32.15;nan
82293;BME280;71892;14.836;105.234;2023-09-18T08:27:23;99157.59;;;32.11;nan
82293;BME280;71892;14.836;105.234;2023-09-18T08:29:50;99160.47;;;31.99;nan
82293;BME280;71892;14.836;105.234;2023-09-18T08:32:16;99172.09;;;31.91;nan
82293;BME280;71892;14.836;105.234;2023-09-18T08:34:43;99169.59;;;32.10;nan
82293;BME280;71892;14.836;105.234;2023-09-18T08:37:09;99159.47;;;32.00;nan
82293;BME280;71892;14.836;105.234;2023-09-18T08:39:35;99158.34;;;31.91;nan
82293;BME280;71892;14.836;105.234;2023-09-18T08:42:04;99161.47;;;31.86;nan
82293;BME280;71892;14.836;105.234;2023-09-18T08:44:31;99153.88;;;31.79;nan
82293;BME280;71892;14.836;105.234;2023-09-18T08:46:58;99165.25;;;31.63;nan
82293;BME280;71892;14.836;105.234;2023-09-18T08:49:25;99160.59;;;31.41;nan
82293;BME280;71892;14.836;105.234;2023-09-18T08:51:54;99142.59;;;31.26;nan
82293;BME280;71892;14.836;105.234;2023-09-18T08:54:22;99146.94;;;31.18;nan
82293;BME280;71892;14.836;105.234;2023-09-18T08:56:52;99158.31;;;31.24;nan
82293;BME280;71892;14.836;105.234;2023-09-18T08:59:21;99156.53;;;31.12;nan
82293;BME280;71892;14.836;105.234;2023-09-18T09:01:48;99162.41;;;31.19;nan
82293;BME280;71892;14.836;105.234;2023-09-18T09:04:14;99146.22;;;31.27;nan
82293;BME280;71892;14.836;105.234;2023-09-18T09:06:41;99147.72;;;31.31;nan
82293;BME280;71892;14.836;105.234;2023-09-18T09:09:07;99147.81;;;31.29;nan
82293;BME280;71892;14.836;105.234;2023-09-18T09:11:34;99128.59;;;31.29;nan
82293;BME280;71892;14.836;105.234;2023-09-18T09:14:14;99135.31;;;31.14;nan
82293;BME280;71892;14.836;105.234;2023-09-18T09:17:09;99121.94;;;31.10;nan
82293;BME280;71892;14.836;105.234;2023-09-18T09:19:36;99124.56;;;31.11;nan
82293;BME280;71892;14.836;105.234;2023-09-18T09:22:04;99119.91;;;31.00;nan
82293;BME280;71892;14.836;105.234;2023-09-18T09:24:38;99123.06;;;31.07;nan
82293;BME280;71892;14.836;105.234;2023-09-18T09:27:05;99129.22;;;31.22;nan
82293;BME280;71892;14.836;105.234;2023-09-18T09:29:31;99138.06;;;31.14;nan
82293;BME280;71892;14.836;105.234;2023-09-18T09:32:17;99136.44;;;31.12;nan
82293;BME280;71892;14.836;105.234;2023-09-18T09:34:45;99133.69;;;31.12;nan
82293;BME280;71892;14.836;105.234;2023-09-18T09:37:14;99131.97;;;31.22;nan
82293;BME280;71892;14.836;105.234;2023-09-18T09:39:49;99135.84;;;31.30;nan
82293;BME280;71892;14.836;105.234;2023-09-18T09:42:20;99125.22;;;31.26;nan
82293;BME280;71892;14.836;105.234;2023-09-18T09:45:05;99114.72;;;31.20;nan
82293;BME280;71892;14.836;105.234;2023-09-18T09:47:36;99113.22;;;31.16;nan
82293;BME280;71892;14.836;105.234;2023-09-18T09:50:07;99113.72;;;31.21;nan
82293;BME280;71892;14.836;105.234;2023-09-18T09:52:35;99116.84;;;31.16;nan
82293;BME280;71892;14.836;105.234;2023-09-18T09:55:03;99110.59;;;31.14;nan
82293;BME280;71892;14.836;105.234;2023-09-18T09:58:00;99113.97;;;31.06;nan
82293;BME280;71892;14.836;105.234;2023-09-18T10:00:39;99099.19;;;30.96;nan
82293;BME280;71892;14.836;105.234;2023-09-18T10:03:11;99115.50;;;30.87;nan
82293;BME280;71892;14.836;105.234;2023-09-18T10:05:42;99124.47;;;30.78;nan
82293;BME280;71892;14.836;105.234;2023-09-18T10:08:24;99120.69;;;30.68;nan
82293;BME280;71892;14.836;105.234;2023-09-18T10:10:56;99123.53;;;30.66;nan
82293;BME280;71892;14.836;105.234;2023-09-18T10:13:33;99121.63;;;30.55;nan
82293;BME280;71892;14.836;105.234;2023-09-18T10:16:04;99141.34;;;30.49;nan
82293;BME280;71892;14.836;105.234;2023-09-18T10:18:54;99139.13;;;30.42;nan
82293;BME280;71892;14.836;105.234;2023-09-18T10:21:41;99154.53;;;30.32;nan
82293;BME280;71892;14.836;105.234;2023-09-18T10:24:21;99156.88;;;30.25;nan
82293;BME280;71892;14.836;105.234;2023-09-18T10:26:56;99151.75;;;30.20;nan
82293;BME280;71892;14.836;105.234;2023-09-18T10:29:24;99169.00;;;30.10;nan
82293;BME280;71892;14.836;105.234;2023-09-18T10:31:52;99160.69;;;29.99;nan
82293;BME280;71892;14.836;105.234;2023-09-18T10:34:20;99174.53;;;29.85;nan
82293;BME280;71892;14.836;105.234;2023-09-18T10:36:49;99189.78;;;29.76;nan
82293;BME280;71892;14.836;105.234;2023-09-18T10:39:16;99173.47;;;29.62;nan
82293;BME280;71892;14.836;105.234;2023-09-18T10:41:53;99181.03;;;29.46;nan
82293;BME280;71892;14.836;105.234;2023-09-18T10:44:20;99195.84;;;29.43;nan
82293;BME280;71892;14.836;105.234;2023-09-18T10:46:47;99200.44;;;29.55;nan
82293;BME280;71892;14.836;105.234;2023-09-18T10:49:18;99209.09;;;29.62;nan
82293;BME280;71892;14.836;105.234;2023-09-18T10:51:46;99201.09;;;29.59;nan
82293;BME280;71892;14.836;105.234;2023-09-18T10:54:20;99204.41;;;29.39;nan
82293;BME280;71892;14.836;105.234;2023-09-18T10:56:47;99208.22;;;29.36;nan
82293;BME280;71892;14.836;105.234;2023-09-18T10:59:15;99212.56;;;29.26;nan
82293;BME280;71892;14.836;105.234;2023-09-18T11:01:42;99209.72;;;29.27;nan
82293;BME280;71892;14.836;105.234;2023-09-18T11:04:08;99205.22;;;29.26;nan
82293;BME280;71892;14.836;105.234;2023-09-18T11:09:31;99206.09;;;29.27;nan
82293;BME280;71892;14.836;105.234;2023-09-18T11:17:34;99221.59;;;29.01;nan
82293;BME280;71892;14.836;105.234;2023-09-18T11:20:24;99225.78;;;28.94;nan
82293;BME280;71892;14.836;105.234;2023-09-18T11:23:39;99221.59;;;29.01;nan
82293;BME280;71892;14.836;105.234;2023-09-18T11:25:46;99243.72;;;28.98;nan
82293;BME280;71892;14.836;105.234;2023-09-18T11:28:22;99240.94;;;28.85;nan
82293;BME280;71892;14.836;105.234;2023-09-18T11:30:56;99241.19;;;28.68;nan
82293;BME280;71892;14.836;105.234;2023-09-18T11:33:40;99250.25;;;28.56;nan
82293;BME280;71892;14.836;105.234;2023-09-18T11:36:13;99266.50;;;28.45;nan
82293;BME280;71892;14.836;105.234;2023-09-18T11:38:58;99280.47;;;28.40;nan
82293;BME280;71892;14.836;105.234;2023-09-18T11:41:35;99286.34;;;28.34;nan
82293;BME280;71892;14.836;105.234;2023-09-18T11:46:49;99229.25;;;28.01;nan
82293;BME280;71892;14.836;105.234;2023-09-18T11:49:23;99296.47;;;28.04;nan
82293;BME280;71892;14.836;105.234;2023-09-18T11:51:52;99308.53;;;28.16;nan
82293;BME280;71892;14.836;105.234;2023-09-18T11:54:19;99321.59;;;28.25;nan
82293;BME280;71892;14.836;105.234;2023-09-18T11:56:47;99321.22;;;28.17;nan
82293;BME280;71892;14.836;105.234;2023-09-18T11:59:13;99322.50;;;28.11;nan
82293;BME280;71892;14.836;105.234;2023-09-18T12:01:39;99316.13;;;28.10;nan
82293;BME280;71892;14.836;105.234;2023-09-18T12:04:06;99330.91;;;28.22;nan
82293;BME280;71892;14.836;105.234;2023-09-18T12:06:39;99342.50;;;28.26;nan
82293;BME280;71892;14.836;105.234;2023-09-18T12:09:07;99342.41;;;28.13;nan
82293;BME280;71892;14.836;105.234;2023-09-18T12:11:34;99343.75;;;28.06;nan
82293;BME280;71892;14.836;105.234;2023-09-18T12:14:04;99345.00;;;28.00;nan
82293;BME280;71892;14.836;105.234;2023-09-18T12:18:58;99349.44;;;28.17;nan
82293;BME280;71892;14.836;105.234;2023-09-18T12:21:25;99353.81;;;28.20;nan
82293;BME280;71892;14.836;105.234;2023-09-18T12:23:51;99351.78;;;28.23;nan
82293;BME280;71892;14.836;105.234;2023-09-18T12:26:17;99354.72;;;28.20;nan
82293;BME280;71892;14.836;105.234;2023-09-18T12:28:46;99373.75;;;28.22;nan
82293;BME280;71892;14.836;105.234;2023-09-18T12:31:13;99378.72;;;28.15;nan
82293;BME280;71892;14.836;105.234;2023-09-18T12:33:41;99371.50;;;28.14;nan
82293;BME280;71892;14.836;105.234;2023-09-18T12:36:09;99393.28;;;28.16;nan
82293;BME280;71892;14.836;105.234;2023-09-18T12:38:37;99379.81;;;28.13;nan
82293;BME280;71892;14.836;105.234;2023-09-18T12:41:04;99400.34;;;28.04;nan
82293;BME280;71892;14.836;105.234;2023-09-18T12:43:39;99397.63;;;28.04;nan
82293;BME280;71892;14.836;105.234;2023-09-18T12:46:08;99409.44;;;28.04;nan
82293;BME280;71892;14.836;105.234;2023-09-18T12:48:41;99415.09;;;28.01;nan
82293;BME280;71892;14.836;105.234;2023-09-18T12:51:12;99405.13;;;28.00;nan
82293;BME280;71892;14.836;105.234;2023-09-18T12:53:40;99417.63;;;27.90;nan
82293;BME280;71892;14.836;105.234;2023-09-18T12:56:12;99429.13;;;27.81;nan
82293;BME280;71892;14.836;105.234;2023-09-18T12:58:39;99419.06;;;27.82;nan
82293;BME280;71892;14.836;105.234;2023-09-18T13:01:07;99439.16;;;27.81;nan
82293;BME280;71892;14.836;105.234;2023-09-18T13:03:44;99427.72;;;27.74;nan
82293;BME280;71892;14.836;105.234;2023-09-18T13:06:16;99449.78;;;27.71;nan
82293;BME280;71892;14.836;105.234;2023-09-18T13:08:46;99457.19;;;27.69;nan
82293;BME280;71892;14.836;105.234;2023-09-18T13:11:14;99454.63;;;27.66;nan
82293;BME280;71892;14.836;105.234;2023-09-18T13:13:42;99453.31;;;27.73;nan
82293;BME280;71892;14.836;105.234;2023-09-18T13:16:11;99458.38;;;27.79;nan
82293;BME280;71892;14.836;105.234;2023-09-18T13:18:38;99464.91;;;27.77;nan
82293;BME280;71892;14.836;105.234;2023-09-18T13:21:12;99457.19;;;27.69;nan
82293;BME280;71892;14.836;105.234;2023-09-18T13:23:38;99486.84;;;27.75;nan